sensor_id;sensor_type;location;lat;lon;timestamp;temperature;humidity
19180;DHT22;9722;48.754;8.868;2023-01-06T00:00:26;9.60;99.90
19180;DHT22;9722;48.754;8.868;2023-01-06T00:03:50;9.50;99.90
19180;DHT22;9722;48.754;8.868;2023-01-06T00:07:12;9.50;99.90
19180;DHT22;9722;48.754;8.868;2023-01-06T00:10:32;9.50;99.90
19180;DHT22;9722;48.754;8.868;2023-01-06T00:13:54;9.50;99.90
19180;DHT22;9722;48.754;8.868;2023-01-06T00:17:15;9.50;99.90
19180;DHT22;9722;48.754;8.868;2023-01-06T00:20:35;9.50;99.90
19180;DHT22;9722;48.754;8.868;2023-01-06T00:23:56;9.50;99.90
19180;DHT22;9722;48.754;8.868;2023-01-06T00:27:16;9.60;99.90
19180;DHT22;9722;48.754;8.868;2023-01-06T00:30:37;9.60;99.90
19180;DHT22;9722;48.754;8.868;2023-01-06T00:33:57;9.70;99.90
19180;DHT22;9722;48.754;8.868;2023-01-06T00:37:18;9.80;99.90
19180;DHT22;9722;48.754;8.868;2023-01-06T00:40:38;9.80;99.90
19180;DHT22;9722;48.754;8.868;2023-01-06T00:44:00;9.90;99.90
19180;DHT22;9722;48.754;8.868;2023-01-06T00:47:21;9.90;99.90
19180;DHT22;9722;48.754;8.868;2023-01-06T00:50:41;10.00;99.90
19180;DHT22;9722;48.754;8.868;2023-01-06T00:54:02;10.00;99.90
19180;DHT22;9722;48.754;8.868;2023-01-06T00:57:23;10.00;99.90
19180;DHT22;9722;48.754;8.868;2023-01-06T01:00:43;10.10;99.90
19180;DHT22;9722;48.754;8.868;2023-01-06T01:04:04;10.10;99.90
19180;DHT22;9722;48.754;8.868;2023-01-06T01:07:25;10.10;99.90
19180;DHT22;9722;48.754;8.868;2023-01-06T01:10:45;10.20;99.90
19180;DHT22;9722;48.754;8.868;2023-01-06T01:14:06;10.20;99.90
19180;DHT22;9722;48.754;8.868;2023-01-06T01:17:29;10.30;99.90
19180;DHT22;9722;48.754;8.868;2023-01-06T01:20:50;10.30;99.90
19180;DHT22;9722;48.754;8.868;2023-01-06T01:24:10;10.40;99.90
19180;DHT22;9722;48.754;8.868;2023-01-06T01:27:31;10.40;99.90
19180;DHT22;9722;48.754;8.868;2023-01-06T01:30:59;10.40;99.90
19180;DHT22;9722;48.754;8.868;2023-01-06T01:34:20;10.40;99.90
19180;DHT22;9722;48.754;8.868;2023-01-06T01:37:41;10.40;99.90
19180;DHT22;9722;48.754;8.868;2023-01-06T01:41:02;10.40;99.90
19180;DHT22;9722;48.754;8.868;2023-01-06T01:44:58;10.50;99.90
19180;DHT22;9722;48.754;8.868;2023-01-06T01:48:29;10.50;99.90
19180;DHT22;9722;48.754;8.868;2023-01-06T01:51:52;10.50;99.90
19180;DHT22;9722;48.754;8.868;2023-01-06T01:55:14;10.50;99.90
19180;DHT22;9722;48.754;8.868;2023-01-06T01:58:39;10.50;99.90
19180;DHT22;9722;48.754;8.868;2023-01-06T02:02:00;10.50;99.90
19180;DHT22;9722;48.754;8.868;2023-01-06T02:05:23;10.40;99.90
19180;DHT22;9722;48.754;8.868;2023-01-06T02:12:31;10.30;99.90
19180;DHT22;9722;48.754;8.868;2023-01-06T02:16:42;10.30;99.90
19180;DHT22;9722;48.754;8.868;2023-01-06T02:27:02;10.40;99.90
19180;DHT22;9722;48.754;8.868;2023-01-06T02:33:57;10.40;99.90
19180;DHT22;9722;48.754;8.868;2023-01-06T02:37:37;10.50;99.90
19180;DHT22;9722;48.754;8.868;2023-01-06T02:41:09;10.40;99.90
19180;DHT22;9722;48.754;8.868;2023-01-06T02:44:41;10.40;99.90
19180;DHT22;9722;48.754;8.868;2023-01-06T02:51:43;10.30;99.90
19180;DHT22;9722;48.754;8.868;2023-01-06T02:55:09;10.20;99.90
19180;DHT22;9722;48.754;8.868;2023-01-06T03:02:00;10.20;99.90
19180;DHT22;9722;48.754;8.868;2023-01-06T03:05:22;10.20;99.90
19180;DHT22;9722;48.754;8.868;2023-01-06T03:08:45;10.20;99.90
19180;DHT22;9722;48.754;8.868;2023-01-06T03:12:31;10.30;99.90
19180;DHT22;9722;48.754;8.868;2023-01-06T03:15:53;10.30;99.90
19180;DHT22;9722;48.754;8.868;2023-01-06T03:19:14;10.30;99.90
19180;DHT22;9722;48.754;8.868;2023-01-06T03:22:35;10.30;99.90
19180;DHT22;9722;48.754;8.868;2023-01-06T03:25:58;10.30;99.90
19180;DHT22;9722;48.754;8.868;2023-01-06T03:29:19;10.20;99.90
19180;DHT22;9722;48.754;8.868;2023-01-06T03:40:09;10.30;99.90
19180;DHT22;9722;48.754;8.868;2023-01-06T03:47:04;10.20;99.90
19180;DHT22;9722;48.754;8.868;2023-01-06T03:57:55;10.20;99.90
19180;DHT22;9722;48.754;8.868;2023-01-06T04:01:17;10.20;99.90
19180;DHT22;9722;48.754;8.868;2023-01-06T04:04:37;10.20;99.90
19180;DHT22;9722;48.754;8.868;2023-01-06T04:07:58;10.30;99.90
19180;DHT22;9722;48.754;8.868;2023-01-06T04:11:19;10.30;99.90
19180;DHT22;9722;48.754;8.868;2023-01-06T04:14:58;10.40;99.90
19180;DHT22;9722;48.754;8.868;2023-01-06T04:18:18;10.40;99.90
19180;DHT22;9722;48.754;8.868;2023-01-06T04:21:39;10.40;99.90
19180;DHT22;9722;48.754;8.868;2023-01-06T04:24:59;10.40;99.90
19180;DHT22;9722;48.754;8.868;2023-01-06T04:28:20;10.40;99.90
19180;DHT22;9722;48.754;8.868;2023-01-06T04:31:40;10.40;99.90
19180;DHT22;9722;48.754;8.868;2023-01-06T04:35:01;10.40;99.90
19180;DHT22;9722;48.754;8.868;2023-01-06T04:38:21;10.30;99.90
19180;DHT22;9722;48.754;8.868;2023-01-06T04:41:42;10.20;99.90
19180;DHT22;9722;48.754;8.868;2023-01-06T04:45:02;10.10;99.90
19180;DHT22;9722;48.754;8.868;2023-01-06T04:48:23;10.10;99.90
19180;DHT22;9722;48.754;8.868;2023-01-06T04:51:44;10.00;99.90
19180;DHT22;9722;48.754;8.868;2023-01-06T04:55:05;9.90;99.90
19180;DHT22;9722;48.754;8.868;2023-01-06T04:58:25;9.90;99.90
19180;DHT22;9722;48.754;8.868;2023-01-06T05:01:46;9.90;99.90
19180;DHT22;9722;48.754;8.868;2023-01-06T05:05:07;9.80;99.90
19180;DHT22;9722;48.754;8.868;2023-01-06T05:08:29;9.80;99.90
19180;DHT22;9722;48.754;8.868;2023-01-06T05:11:50;9.80;99.90
19180;DHT22;9722;48.754;8.868;2023-01-06T05:15:10;9.70;99.90
19180;DHT22;9722;48.754;8.868;2023-01-06T05:18:31;9.70;99.90
19180;DHT22;9722;48.754;8.868;2023-01-06T05:21:52;9.70;99.90
19180;DHT22;9722;48.754;8.868;2023-01-06T05:25:12;9.70;99.90
19180;DHT22;9722;48.754;8.868;2023-01-06T05:28:33;9.70;99.90
19180;DHT22;9722;48.754;8.868;2023-01-06T05:31:54;9.70;99.90
19180;DHT22;9722;48.754;8.868;2023-01-06T05:35:14;9.70;99.90
19180;DHT22;9722;48.754;8.868;2023-01-06T05:38:35;9.70;99.90
19180;DHT22;9722;48.754;8.868;2023-01-06T05:41:56;9.70;99.90
19180;DHT22;9722;48.754;8.868;2023-01-06T05:45:16;9.70;99.90
19180;DHT22;9722;48.754;8.868;2023-01-06T05:48:37;9.80;99.90
19180;DHT22;9722;48.754;8.868;2023-01-06T05:51:58;9.80;99.90
19180;DHT22;9722;48.754;8.868;2023-01-06T05:55:19;9.80;99.90
19180;DHT22;9722;48.754;8.868;2023-01-06T05:58:39;9.80;99.90
19180;DHT22;9722;48.754;8.868;2023-01-06T06:02:02;9.80;99.90
19180;DHT22;9722;48.754;8.868;2023-01-06T06:05:23;9.80;99.90
19180;DHT22;9722;48.754;8.868;2023-01-06T06:08:43;9.90;99.90
19180;DHT22;9722;48.754;8.868;2023-01-06T06:12:04;9.90;99.90
19180;DHT22;9722;48.754;8.868;2023-01-06T06:15:26;9.90;99.90
19180;DHT22;9722;48.754;8.868;2023-01-06T06:18:52;9.90;99.90
19180;DHT22;9722;48.754;8.868;2023-01-06T06:22:12;10.00;99.90
19180;DHT22;9722;48.754;8.868;2023-01-06T06:25:33;10.00;99.90
19180;DHT22;9722;48.754;8.868;2023-01-06T06:28:53;10.00;99.90
19180;DHT22;9722;48.754;8.868;2023-01-06T06:32:14;10.00;99.90
19180;DHT22;9722;48.754;8.868;2023-01-06T06:35:34;10.10;99.90
19180;DHT22;9722;48.754;8.868;2023-01-06T06:38:56;10.10;99.90
19180;DHT22;9722;48.754;8.868;2023-01-06T06:42:16;10.10;99.90
19180;DHT22;9722;48.754;8.868;2023-01-06T06:45:37;10.10;99.90
19180;DHT22;9722;48.754;8.868;2023-01-06T06:48:57;10.20;99.90
19180;DHT22;9722;48.754;8.868;2023-01-06T06:52:18;10.20;99.90
19180;DHT22;9722;48.754;8.868;2023-01-06T06:55:38;10.20;99.90
19180;DHT22;9722;48.754;8.868;2023-01-06T06:58:59;10.20;99.90
19180;DHT22;9722;48.754;8.868;2023-01-06T07:02:19;10.20;99.90
19180;DHT22;9722;48.754;8.868;2023-01-06T07:05:41;10.20;99.90
19180;DHT22;9722;48.754;8.868;2023-01-06T07:09:03;10.20;99.90
19180;DHT22;9722;48.754;8.868;2023-01-06T07:12:24;10.20;99.90
19180;DHT22;9722;48.754;8.868;2023-01-06T07:15:45;10.20;99.90
19180;DHT22;9722;48.754;8.868;2023-01-06T07:19:07;10.20;99.90
19180;DHT22;9722;48.754;8.868;2023-01-06T07:22:28;10.20;99.90
19180;DHT22;9722;48.754;8.868;2023-01-06T07:25:53;10.20;99.90
19180;DHT22;9722;48.754;8.868;2023-01-06T07:29:14;10.20;99.90
19180;DHT22;9722;48.754;8.868;2023-01-06T07:32:35;10.20;99.90
19180;DHT22;9722;48.754;8.868;2023-01-06T07:35:56;10.20;99.90
19180;DHT22;9722;48.754;8.868;2023-01-06T07:39:17;10.20;99.90
19180;DHT22;9722;48.754;8.868;2023-01-06T07:42:38;10.20;99.90
19180;DHT22;9722;48.754;8.868;2023-01-06T07:45:59;10.20;99.90
19180;DHT22;9722;48.754;8.868;2023-01-06T07:49:19;10.30;99.90
19180;DHT22;9722;48.754;8.868;2023-01-06T07:52:40;10.30;99.90
19180;DHT22;9722;48.754;8.868;2023-01-06T07:56:00;10.20;99.90
19180;DHT22;9722;48.754;8.868;2023-01-06T07:59:21;10.20;99.90
19180;DHT22;9722;48.754;8.868;2023-01-06T08:02:41;10.30;99.90
19180;DHT22;9722;48.754;8.868;2023-01-06T08:06:09;10.30;99.90
19180;DHT22;9722;48.754;8.868;2023-01-06T08:09:30;10.30;99.90
19180;DHT22;9722;48.754;8.868;2023-01-06T08:12:50;10.30;99.90
19180;DHT22;9722;48.754;8.868;2023-01-06T08:16:11;10.30;99.90
19180;DHT22;9722;48.754;8.868;2023-01-06T08:19:32;10.30;99.90
19180;DHT22;9722;48.754;8.868;2023-01-06T08:22:52;10.40;99.90
19180;DHT22;9722;48.754;8.868;2023-01-06T08:26:15;10.40;99.90
19180;DHT22;9722;48.754;8.868;2023-01-06T08:29:36;10.40;99.90
19180;DHT22;9722;48.754;8.868;2023-01-06T08:32:58;10.40;99.90
19180;DHT22;9722;48.754;8.868;2023-01-06T08:36:23;10.40;99.90
19180;DHT22;9722;48.754;8.868;2023-01-06T08:39:43;10.40;99.90
19180;DHT22;9722;48.754;8.868;2023-01-06T08:43:04;10.40;99.90
19180;DHT22;9722;48.754;8.868;2023-01-06T08:46:24;10.40;99.90
19180;DHT22;9722;48.754;8.868;2023-01-06T08:49:45;10.40;99.90
19180;DHT22;9722;48.754;8.868;2023-01-06T08:53:07;10.50;99.90
19180;DHT22;9722;48.754;8.868;2023-01-06T08:56:29;10.50;99.90
19180;DHT22;9722;48.754;8.868;2023-01-06T08:59:50;10.50;99.90
19180;DHT22;9722;48.754;8.868;2023-01-06T09:03:11;10.60;99.90
19180;DHT22;9722;48.754;8.868;2023-01-06T09:06:32;10.60;99.90
19180;DHT22;9722;48.754;8.868;2023-01-06T09:09:52;10.60;99.90
19180;DHT22;9722;48.754;8.868;2023-01-06T09:13:13;10.70;99.90
19180;DHT22;9722;48.754;8.868;2023-01-06T09:16:34;10.80;99.90
19180;DHT22;9722;48.754;8.868;2023-01-06T09:19:54;10.90;99.90
19180;DHT22;9722;48.754;8.868;2023-01-06T09:23:15;11.00;99.70
19180;DHT22;9722;48.754;8.868;2023-01-06T09:26:35;11.10;99.30
19180;DHT22;9722;48.754;8.868;2023-01-06T09:29:56;11.30;99.00
19180;DHT22;9722;48.754;8.868;2023-01-06T09:33:16;11.30;98.40
19180;DHT22;9722;48.754;8.868;2023-01-06T09:36:37;11.30;98.00
19180;DHT22;9722;48.754;8.868;2023-01-06T09:39:57;11.40;97.60
19180;DHT22;9722;48.754;8.868;2023-01-06T09:46:44;11.50;96.70
19180;DHT22;9722;48.754;8.868;2023-01-06T09:50:13;11.50;96.00
19180;DHT22;9722;48.754;8.868;2023-01-06T09:53:40;11.50;95.80
19180;DHT22;9722;48.754;8.868;2023-01-06T09:57:08;11.60;95.60
19180;DHT22;9722;48.754;8.868;2023-01-06T10:00:37;11.70;95.40
19180;DHT22;9722;48.754;8.868;2023-01-06T10:03:59;11.70;95.20
19180;DHT22;9722;48.754;8.868;2023-01-06T10:08:01;11.70;95.20
19180;DHT22;9722;48.754;8.868;2023-01-06T10:15:22;11.90;95.00
19180;DHT22;9722;48.754;8.868;2023-01-06T10:18:53;12.10;94.70
19180;DHT22;9722;48.754;8.868;2023-01-06T10:22:33;12.20;94.30
19180;DHT22;9722;48.754;8.868;2023-01-06T10:26:10;12.20;94.00
19180;DHT22;9722;48.754;8.868;2023-01-06T10:29:33;12.50;93.20
19180;DHT22;9722;48.754;8.868;2023-01-06T10:32:55;12.80;92.40
19180;DHT22;9722;48.754;8.868;2023-01-06T10:36:25;13.00;91.80
19180;DHT22;9722;48.754;8.868;2023-01-06T10:39:55;13.30;90.60
19180;DHT22;9722;48.754;8.868;2023-01-06T10:43:18;13.70;89.30
19180;DHT22;9722;48.754;8.868;2023-01-06T10:46:41;14.20;86.30
19180;DHT22;9722;48.754;8.868;2023-01-06T10:50:04;14.40;85.00
19180;DHT22;9722;48.754;8.868;2023-01-06T10:53:25;14.40;84.00
19180;DHT22;9722;48.754;8.868;2023-01-06T10:56:50;14.20;82.80
19180;DHT22;9722;48.754;8.868;2023-01-06T11:00:22;14.00;82.90
19180;DHT22;9722;48.754;8.868;2023-01-06T11:03:43;13.90;82.60
19180;DHT22;9722;48.754;8.868;2023-01-06T11:07:04;14.10;82.80
19180;DHT22;9722;48.754;8.868;2023-01-06T11:10:43;14.60;81.30
19180;DHT22;9722;48.754;8.868;2023-01-06T11:14:04;14.90;78.80
19180;DHT22;9722;48.754;8.868;2023-01-06T11:17:25;14.90;78.40
19180;DHT22;9722;48.754;8.868;2023-01-06T11:21:01;15.00;77.10
19180;DHT22;9722;48.754;8.868;2023-01-06T11:24:24;14.90;76.70
19180;DHT22;9722;48.754;8.868;2023-01-06T11:31:27;14.70;77.80
19180;DHT22;9722;48.754;8.868;2023-01-06T11:38:14;14.40;76.90
19180;DHT22;9722;48.754;8.868;2023-01-06T11:41:46;14.30;77.00
19180;DHT22;9722;48.754;8.868;2023-01-06T11:48:59;14.20;77.90
19180;DHT22;9722;48.754;8.868;2023-01-06T11:52:27;14.10;77.20
19180;DHT22;9722;48.754;8.868;2023-01-06T11:56:16;14.00;77.80
19180;DHT22;9722;48.754;8.868;2023-01-06T12:03:30;14.00;77.80
19180;DHT22;9722;48.754;8.868;2023-01-06T12:06:59;14.00;76.80
19180;DHT22;9722;48.754;8.868;2023-01-06T12:10:28;14.00;76.40
19180;DHT22;9722;48.754;8.868;2023-01-06T12:13:50;13.90;75.90
19180;DHT22;9722;48.754;8.868;2023-01-06T12:17:31;13.90;75.70
19180;DHT22;9722;48.754;8.868;2023-01-06T12:20:54;13.90;75.50
19180;DHT22;9722;48.754;8.868;2023-01-06T12:24:18;13.90;75.30
19180;DHT22;9722;48.754;8.868;2023-01-06T12:27:44;13.90;74.70
19180;DHT22;9722;48.754;8.868;2023-01-06T12:34:38;13.90;74.40
19180;DHT22;9722;48.754;8.868;2023-01-06T12:38:26;13.70;74.20
19180;DHT22;9722;48.754;8.868;2023-01-06T12:41:54;13.60;74.30
19180;DHT22;9722;48.754;8.868;2023-01-06T12:49:02;13.60;74.30
19180;DHT22;9722;48.754;8.868;2023-01-06T12:52:56;13.60;74.40
19180;DHT22;9722;48.754;8.868;2023-01-06T12:56:37;13.80;74.30
19180;DHT22;9722;48.754;8.868;2023-01-06T13:03:48;14.10;73.90
19180;DHT22;9722;48.754;8.868;2023-01-06T13:07:35;14.10;73.80
19180;DHT22;9722;48.754;8.868;2023-01-06T13:14:41;14.20;73.60
19180;DHT22;9722;48.754;8.868;2023-01-06T13:21:32;14.10;73.50
19180;DHT22;9722;48.754;8.868;2023-01-06T13:25:01;14.10;73.60
19180;DHT22;9722;48.754;8.868;2023-01-06T13:32:01;13.90;73.20
19180;DHT22;9722;48.754;8.868;2023-01-06T13:39:32;13.50;73.50
19180;DHT22;9722;48.754;8.868;2023-01-06T13:42:59;13.30;73.90
19180;DHT22;9722;48.754;8.868;2023-01-06T13:46:23;13.20;74.20
19180;DHT22;9722;48.754;8.868;2023-01-06T13:49:46;13.10;74.70
19180;DHT22;9722;48.754;8.868;2023-01-06T13:53:14;13.00;75.20
19180;DHT22;9722;48.754;8.868;2023-01-06T13:56:35;13.00;75.40
19180;DHT22;9722;48.754;8.868;2023-01-06T14:03:22;12.90;76.20
19180;DHT22;9722;48.754;8.868;2023-01-06T14:06:44;12.90;76.60
19180;DHT22;9722;48.754;8.868;2023-01-06T14:13:52;12.80;77.20
19180;DHT22;9722;48.754;8.868;2023-01-06T14:17:43;12.70;77.20
19180;DHT22;9722;48.754;8.868;2023-01-06T14:21:16;12.60;76.60
19180;DHT22;9722;48.754;8.868;2023-01-06T14:24:41;12.50;76.20
19180;DHT22;9722;48.754;8.868;2023-01-06T14:35:02;12.30;76.40
19180;DHT22;9722;48.754;8.868;2023-01-06T14:38:55;12.20;76.70
19180;DHT22;9722;48.754;8.868;2023-01-06T14:42:20;12.20;76.60
19180;DHT22;9722;48.754;8.868;2023-01-06T14:45:42;12.10;76.80
19180;DHT22;9722;48.754;8.868;2023-01-06T14:49:05;12.10;76.70
19180;DHT22;9722;48.754;8.868;2023-01-06T14:52:38;12.10;76.90
19180;DHT22;9722;48.754;8.868;2023-01-06T14:56:01;12.00;77.20
19180;DHT22;9722;48.754;8.868;2023-01-06T14:59:23;11.90;77.20
19180;DHT22;9722;48.754;8.868;2023-01-06T15:02:46;11.90;77.40
19180;DHT22;9722;48.754;8.868;2023-01-06T15:06:22;11.90;77.80
19180;DHT22;9722;48.754;8.868;2023-01-06T15:09:44;11.80;78.00
19180;DHT22;9722;48.754;8.868;2023-01-06T15:13:21;11.80;78.20
19180;DHT22;9722;48.754;8.868;2023-01-06T15:16:42;11.70;78.20
19180;DHT22;9722;48.754;8.868;2023-01-06T15:20:10;11.70;78.40
19180;DHT22;9722;48.754;8.868;2023-01-06T15:23:32;11.50;78.60
19180;DHT22;9722;48.754;8.868;2023-01-06T15:27:02;11.50;78.80
19180;DHT22;9722;48.754;8.868;2023-01-06T15:30:25;11.50;79.00
19180;DHT22;9722;48.754;8.868;2023-01-06T15:33:47;11.50;79.40
19180;DHT22;9722;48.754;8.868;2023-01-06T15:37:14;11.40;79.50
19180;DHT22;9722;48.754;8.868;2023-01-06T15:40:37;11.40;80.00
19180;DHT22;9722;48.754;8.868;2023-01-06T15:44:00;11.40;80.30
19180;DHT22;9722;48.754;8.868;2023-01-06T15:47:36;11.30;80.50
19180;DHT22;9722;48.754;8.868;2023-01-06T15:50:58;11.30;80.80
19180;DHT22;9722;48.754;8.868;2023-01-06T15:54:19;11.30;80.80
19180;DHT22;9722;48.754;8.868;2023-01-06T15:57:40;11.20;80.90
19180;DHT22;9722;48.754;8.868;2023-01-06T16:01:11;11.20;81.20
19180;DHT22;9722;48.754;8.868;2023-01-06T16:04:42;11.20;81.50
19180;DHT22;9722;48.754;8.868;2023-01-06T16:08:13;11.20;81.50
19180;DHT22;9722;48.754;8.868;2023-01-06T16:11:34;11.20;81.50
19180;DHT22;9722;48.754;8.868;2023-01-06T16:15:33;11.20;82.00
19180;DHT22;9722;48.754;8.868;2023-01-06T16:18:54;11.20;82.10
19180;DHT22;9722;48.754;8.868;2023-01-06T16:22:39;11.10;82.10
19180;DHT22;9722;48.754;8.868;2023-01-06T16:26:17;11.10;82.20
19180;DHT22;9722;48.754;8.868;2023-01-06T16:29:38;11.10;82.30
19180;DHT22;9722;48.754;8.868;2023-01-06T16:33:00;11.10;82.40
19180;DHT22;9722;48.754;8.868;2023-01-06T16:36:20;11.00;82.40
19180;DHT22;9722;48.754;8.868;2023-01-06T16:39:41;11.00;82.70
19180;DHT22;9722;48.754;8.868;2023-01-06T16:43:02;10.90;82.90
19180;DHT22;9722;48.754;8.868;2023-01-06T16:46:23;10.90;83.20
19180;DHT22;9722;48.754;8.868;2023-01-06T16:49:46;10.90;83.40
19180;DHT22;9722;48.754;8.868;2023-01-06T16:53:20;10.80;83.50
19180;DHT22;9722;48.754;8.868;2023-01-06T16:56:41;10.80;83.90
19180;DHT22;9722;48.754;8.868;2023-01-06T17:00:02;10.80;84.00
19180;DHT22;9722;48.754;8.868;2023-01-06T17:03:30;10.80;84.40
19180;DHT22;9722;48.754;8.868;2023-01-06T17:06:55;10.70;84.70
19180;DHT22;9722;48.754;8.868;2023-01-06T17:10:19;10.70;85.00
19180;DHT22;9722;48.754;8.868;2023-01-06T17:13:41;10.60;85.30
19180;DHT22;9722;48.754;8.868;2023-01-06T17:17:18;10.50;85.60
19180;DHT22;9722;48.754;8.868;2023-01-06T17:20:39;10.50;86.10
19180;DHT22;9722;48.754;8.868;2023-01-06T17:27:45;10.30;86.60
19180;DHT22;9722;48.754;8.868;2023-01-06T17:31:18;10.30;87.70
19180;DHT22;9722;48.754;8.868;2023-01-06T17:34:40;10.20;87.20
19180;DHT22;9722;48.754;8.868;2023-01-06T17:38:09;10.20;87.60
19180;DHT22;9722;48.754;8.868;2023-01-06T17:41:32;10.20;88.00
19180;DHT22;9722;48.754;8.868;2023-01-06T17:44:55;10.10;87.90
19180;DHT22;9722;48.754;8.868;2023-01-06T17:48:15;10.10;88.50
19180;DHT22;9722;48.754;8.868;2023-01-06T17:51:37;10.00;88.80
19180;DHT22;9722;48.754;8.868;2023-01-06T17:55:18;10.00;88.90
19180;DHT22;9722;48.754;8.868;2023-01-06T17:59:15;10.00;89.20
19180;DHT22;9722;48.754;8.868;2023-01-06T18:02:38;10.00;89.30
19180;DHT22;9722;48.754;8.868;2023-01-06T18:09:20;10.10;89.70
19180;DHT22;9722;48.754;8.868;2023-01-06T18:12:42;10.10;89.70
19180;DHT22;9722;48.754;8.868;2023-01-06T18:16:26;10.10;89.90
19180;DHT22;9722;48.754;8.868;2023-01-06T18:19:47;10.10;90.00
19180;DHT22;9722;48.754;8.868;2023-01-06T18:23:16;10.10;90.10
19180;DHT22;9722;48.754;8.868;2023-01-06T18:26:40;10.10;90.30
19180;DHT22;9722;48.754;8.868;2023-01-06T18:30:23;10.10;90.40
19180;DHT22;9722;48.754;8.868;2023-01-06T18:33:48;10.10;90.40
19180;DHT22;9722;48.754;8.868;2023-01-06T18:37:09;10.10;90.40
19180;DHT22;9722;48.754;8.868;2023-01-06T18:40:29;10.10;90.30
19180;DHT22;9722;48.754;8.868;2023-01-06T18:43:57;10.10;90.40
19180;DHT22;9722;48.754;8.868;2023-01-06T18:47:19;10.10;90.50
19180;DHT22;9722;48.754;8.868;2023-01-06T18:50:45;10.00;90.60
19180;DHT22;9722;48.754;8.868;2023-01-06T18:54:18;10.00;90.70
19180;DHT22;9722;48.754;8.868;2023-01-06T18:57:38;10.00;90.70
19180;DHT22;9722;48.754;8.868;2023-01-06T19:01:18;10.00;90.70
19180;DHT22;9722;48.754;8.868;2023-01-06T19:04:40;10.00;90.90
19180;DHT22;9722;48.754;8.868;2023-01-06T19:08:12;10.00;91.00
19180;DHT22;9722;48.754;8.868;2023-01-06T19:11:34;10.00;91.10
19180;DHT22;9722;48.754;8.868;2023-01-06T19:14:57;10.00;91.30
19180;DHT22;9722;48.754;8.868;2023-01-06T19:18:18;10.00;91.40
19180;DHT22;9722;48.754;8.868;2023-01-06T19:21:40;10.00;91.50
19180;DHT22;9722;48.754;8.868;2023-01-06T19:25:11;10.00;91.50
19180;DHT22;9722;48.754;8.868;2023-01-06T19:28:33;10.00;91.60
19180;DHT22;9722;48.754;8.868;2023-01-06T19:31:57;10.00;91.70
19180;DHT22;9722;48.754;8.868;2023-01-06T19:38:43;10.00;91.90
19180;DHT22;9722;48.754;8.868;2023-01-06T19:45:29;10.10;91.90
19180;DHT22;9722;48.754;8.868;2023-01-06T19:48:50;10.10;91.90
19180;DHT22;9722;48.754;8.868;2023-01-06T19:55:43;10.20;91.80
19180;DHT22;9722;48.754;8.868;2023-01-06T19:59:27;10.20;91.80
19180;DHT22;9722;48.754;8.868;2023-01-06T20:02:50;10.20;91.70
19180;DHT22;9722;48.754;8.868;2023-01-06T20:06:12;10.20;91.70
19180;DHT22;9722;48.754;8.868;2023-01-06T20:09:33;10.20;91.70
19180;DHT22;9722;48.754;8.868;2023-01-06T20:12:53;10.20;91.60
19180;DHT22;9722;48.754;8.868;2023-01-06T20:16:14;10.10;91.60
19180;DHT22;9722;48.754;8.868;2023-01-06T20:19:34;10.10;91.70
19180;DHT22;9722;48.754;8.868;2023-01-06T20:22:55;10.10;91.80
19180;DHT22;9722;48.754;8.868;2023-01-06T20:26:15;10.00;91.90
19180;DHT22;9722;48.754;8.868;2023-01-06T20:29:36;10.00;92.00
19180;DHT22;9722;48.754;8.868;2023-01-06T20:32:56;10.00;92.10
19180;DHT22;9722;48.754;8.868;2023-01-06T20:36:17;9.90;92.70
19180;DHT22;9722;48.754;8.868;2023-01-06T20:39:37;9.90;92.80
19180;DHT22;9722;48.754;8.868;2023-01-06T20:42:58;9.90;92.90
19180;DHT22;9722;48.754;8.868;2023-01-06T20:46:18;9.90;92.90
19180;DHT22;9722;48.754;8.868;2023-01-06T20:49:39;9.90;92.90
19180;DHT22;9722;48.754;8.868;2023-01-06T20:52:59;9.90;92.90
19180;DHT22;9722;48.754;8.868;2023-01-06T20:56:20;9.90;93.00
19180;DHT22;9722;48.754;8.868;2023-01-06T20:59:40;9.90;93.00
19180;DHT22;9722;48.754;8.868;2023-01-06T21:03:01;9.90;93.00
19180;DHT22;9722;48.754;8.868;2023-01-06T21:06:21;9.90;92.90
19180;DHT22;9722;48.754;8.868;2023-01-06T21:09:42;9.90;92.90
19180;DHT22;9722;48.754;8.868;2023-01-06T21:13:02;9.80;93.00
19180;DHT22;9722;48.754;8.868;2023-01-06T21:16:23;9.80;93.00
19180;DHT22;9722;48.754;8.868;2023-01-06T21:19:43;9.80;93.10
19180;DHT22;9722;48.754;8.868;2023-01-06T21:23:04;9.80;93.10
19180;DHT22;9722;48.754;8.868;2023-01-06T21:26:25;9.80;93.20
19180;DHT22;9722;48.754;8.868;2023-01-06T21:29:45;9.80;93.30
19180;DHT22;9722;48.754;8.868;2023-01-06T21:33:06;9.80;93.40
19180;DHT22;9722;48.754;8.868;2023-01-06T21:36:26;9.80;93.40
19180;DHT22;9722;48.754;8.868;2023-01-06T21:39:47;9.80;93.40
19180;DHT22;9722;48.754;8.868;2023-01-06T21:43:08;9.90;93.50
19180;DHT22;9722;48.754;8.868;2023-01-06T21:46:28;9.80;93.50
19180;DHT22;9722;48.754;8.868;2023-01-06T21:49:49;9.80;93.50
19180;DHT22;9722;48.754;8.868;2023-01-06T21:53:10;9.80;93.40
19180;DHT22;9722;48.754;8.868;2023-01-06T21:56:31;9.80;93.40
19180;DHT22;9722;48.754;8.868;2023-01-06T21:59:53;9.80;93.40
19180;DHT22;9722;48.754;8.868;2023-01-06T22:03:13;9.90;93.50
19180;DHT22;9722;48.754;8.868;2023-01-06T22:06:35;9.90;93.50
19180;DHT22;9722;48.754;8.868;2023-01-06T22:09:57;9.90;93.50
19180;DHT22;9722;48.754;8.868;2023-01-06T22:13:19;9.90;93.60
19180;DHT22;9722;48.754;8.868;2023-01-06T22:16:41;9.80;93.60
19180;DHT22;9722;48.754;8.868;2023-01-06T22:20:02;9.80;93.60
19180;DHT22;9722;48.754;8.868;2023-01-06T22:23:23;9.80;93.70
19180;DHT22;9722;48.754;8.868;2023-01-06T22:26:44;9.80;93.80
19180;DHT22;9722;48.754;8.868;2023-01-06T22:30:05;9.80;93.90
19180;DHT22;9722;48.754;8.868;2023-01-06T22:33:25;9.80;94.20
19180;DHT22;9722;48.754;8.868;2023-01-06T22:36:46;9.70;93.90
19180;DHT22;9722;48.754;8.868;2023-01-06T22:40:08;9.70;94.00
19180;DHT22;9722;48.754;8.868;2023-01-06T22:43:28;9.70;94.00
19180;DHT22;9722;48.754;8.868;2023-01-06T22:46:49;9.70;94.00
19180;DHT22;9722;48.754;8.868;2023-01-06T22:50:10;9.70;94.10
19180;DHT22;9722;48.754;8.868;2023-01-06T22:53:31;9.60;94.40
19180;DHT22;9722;48.754;8.868;2023-01-06T22:56:52;9.60;94.10
19180;DHT22;9722;48.754;8.868;2023-01-06T23:00:16;9.70;94.10
19180;DHT22;9722;48.754;8.868;2023-01-06T23:03:37;9.70;94.20
19180;DHT22;9722;48.754;8.868;2023-01-06T23:06:57;9.70;94.20
19180;DHT22;9722;48.754;8.868;2023-01-06T23:10:18;9.70;94.10
19180;DHT22;9722;48.754;8.868;2023-01-06T23:13:39;9.70;94.10
19180;DHT22;9722;48.754;8.868;2023-01-06T23:17:00;9.70;94.10
19180;DHT22;9722;48.754;8.868;2023-01-06T23:20:20;9.70;94.10
19180;DHT22;9722;48.754;8.868;2023-01-06T23:23:42;9.70;94.10
19180;DHT22;9722;48.754;8.868;2023-01-06T23:27:03;9.70;94.10
19180;DHT22;9722;48.754;8.868;2023-01-06T23:30:23;9.70;94.10
19180;DHT22;9722;48.754;8.868;2023-01-06T23:33:47;9.70;94.10
19180;DHT22;9722;48.754;8.868;2023-01-06T23:37:07;9.70;94.10
19180;DHT22;9722;48.754;8.868;2023-01-06T23:40:28;9.70;94.10
19180;DHT22;9722;48.754;8.868;2023-01-06T23:43:49;9.80;94.20
19180;DHT22;9722;48.754;8.868;2023-01-06T23:47:09;9.70;94.10
19180;DHT22;9722;48.754;8.868;2023-01-06T23:50:30;9.70;94.10
19180;DHT22;9722;48.754;8.868;2023-01-06T23:53:51;9.70;94.20